Time;durP1;ratioP1;P1;durP2;ratioP2;P2;SDS_P1;SDS_P2;PMS_P1;PMS_P2;Temp;Humidity;BMP_temperature;BMP_pressure;BME280_temperature;BME280_humidity;BME280_pressure;Samples;Min_cycle;Max_cycle;Signal;HPM_P1;HPM_P2
2023/04/02 00:01:02;;;;;;;4.35;2.50;;;9.10;29.80;;;;;;4987605;28;20046;-76
2023/04/02 00:03:44;;;;;;;;;;;9.10;35.20;;;;;;4983099;28;20139;-76
2023/04/02 00:06:38;;;;;;;4.45;2.08;;;9.10;43.00;;;;;;4999326;28;19920;-76
2023/04/02 00:09:13;;;;;;;3.17;1.55;;;9.10;45.80;;;;;;5001548;28;20045;-76
2023/04/02 00:11:47;;;;;;;3.40;1.40;;;9.00;46.70;;;;;;5001802;28;20399;-76
2023/04/02 00:14:32;;;;;;;2.85;1.67;;;9.00;52.70;;;;;;5001864;28;20472;-75
2023/04/02 00:17:01;;;;;;;8.52;3.00;;;9.00;56.50;;;;;;5005828;28;20064;-76
2023/04/02 00:19:34;;;;;;;5.10;2.05;;;9.00;59.00;;;;;;5007871;28;20036;-76
2023/04/02 00:22:01;;;;;;;3.22;1.60;;;9.00;61.90;;;;;;5003177;28;20030;-76
2023/04/02 00:24:27;;;;;;;4.38;1.77;;;8.90;68.40;;;;;;5001204;28;20030;-76
2023/04/02 00:26:54;;;;;;;4.75;1.95;;;8.90;72.90;;;;;;4998690;28;20038;-76
2023/04/02 00:29:21;;;;;;;3.92;1.55;;;8.90;78.70;;;;;;4999226;28;20043;-78
2023/04/02 00:31:52;;;;;;;3.45;1.80;;;8.90;76.20;;;;;;5006494;28;20046;-76
2023/04/02 00:34:24;;;;;;;3.00;2.05;;;8.90;73.30;;;;;;4992515;28;20034;-76
2023/04/02 00:36:52;;;;;;;3.83;1.45;;;8.90;79.30;;;;;;5002754;28;20383;-76
2023/04/02 00:39:22;;;;;;;5.68;2.20;;;8.90;72.70;;;;;;4986804;28;20050;-76
2023/04/02 00:42:03;;;;;;;3.67;2.17;;;8.90;66.80;;;;;;4988971;28;20053;-76
2023/04/02 00:44:41;;;;;;;5.70;3.28;;;9.00;55.60;;;;;;5001272;28;20045;-76
2023/04/02 00:47:19;;;;;;;3.65;2.15;;;9.00;45.00;;;;;;4991875;28;20038;-76
2023/04/02 00:49:46;;;;;;;2.45;1.83;;;9.00;40.80;;;;;;4992072;28;20372;-76
2023/04/02 00:52:15;;;;;;;2.28;1.75;;;9.00;32.90;;;;;;5004264;28;20030;-77
2023/04/02 00:54:47;;;;;;;4.85;2.03;;;9.10;34.10;;;;;;4988024;28;20052;-78
2023/04/02 00:57:16;;;;;;;5.82;2.38;;;9.10;34.70;;;;;;5018028;28;20026;-77
2023/04/02 00:59:57;;;;;;;3.42;2.03;;;9.10;35.30;;;;;;5015390;28;20494;-78
2023/04/02 01:02:32;;;;;;;;;;;9.00;37.20;;;;;;5006563;28;20045;-77
2023/04/02 01:05:21;;;;;;;3.30;1.70;;;9.00;42.60;;;;;;5001689;28;20712;-79
2023/04/02 01:08:11;;;;;;;2.42;1.50;;;8.90;45.50;;;;;;5002273;28;20041;-77
2023/04/02 01:10:59;;;;;;;2.90;1.30;;;8.90;45.60;;;;;;5002328;28;20042;-83
2023/04/02 01:13:28;;;;;;;5.65;1.77;;;8.90;51.50;;;;;;4988567;28;20057;-77
2023/04/02 01:16:15;;;;;;;3.60;1.17;;;8.90;57.40;;;;;;4990443;28;20399;-76
2023/04/02 01:18:50;;;;;;;4.03;1.42;;;8.80;57.90;;;;;;5000969;28;20037;-77
2023/04/02 01:21:54;;;;;;;2.28;1.17;;;8.80;62.80;;;;;;5009676;28;20057;-77
2023/04/02 01:24:23;;;;;;;4.65;1.55;;;8.80;62.20;;;;;;4986374;28;20050;-77
2023/04/02 01:26:59;;;;;;;5.35;1.40;;;8.80;62.90;;;;;;4987287;28;20502;-76
2023/04/02 01:29:38;;;;;;;3.05;1.08;;;8.80;66.30;;;;;;5006160;28;20058;-77
2023/04/02 01:32:16;;;;;;;3.05;1.25;;;8.80;60.20;;;;;;5011010;28;20034;-76
2023/04/02 01:34:46;;;;;;;2.97;0.85;;;8.80;58.30;;;;;;5002325;28;20522;-78
2023/04/02 01:37:35;;;;;;;3.60;1.00;;;8.80;53.10;;;;;;5006903;28;20030;-78
2023/04/02 01:40:35;;;;;;;5.28;1.50;;;8.80;53.90;;;;;;4957994;28;20042;-76
2023/04/02 01:43:28;;;;;;;2.05;0.90;;;8.70;51.80;;;;;;4991939;28;20042;-76
2023/04/02 01:46:03;;;;;;;2.35;1.02;;;8.70;50.10;;;;;;5003536;28;20506;-76
2023/04/02 01:48:32;;;;;;;3.00;1.30;;;8.70;49.70;;;;;;4993703;28;20057;-77
2023/04/02 01:51:02;;;;;;;4.40;1.23;;;8.70;47.40;;;;;;4994757;28;20034;-76
2023/04/02 01:53:30;;;;;;;3.95;1.10;;;8.70;43.50;;;;;;4986109;28;20046;-77
2023/04/02 01:55:59;;;;;;;2.15;1.08;;;8.70;41.30;;;;;;4985205;28;20042;-77
2023/04/02 01:58:30;;;;;;;2.00;1.02;;;8.70;40.80;;;;;;4985783;28;20046;-76
2023/04/02 02:01:05;;;;;;;2.78;1.10;;;8.70;37.70;;;;;;5001277;28;20054;-77
2023/04/02 02:03:33;;;;;;;4.18;1.50;;;8.70;34.20;;;;;;5005657;28;20057;-77
2023/04/02 02:06:04;;;;;;;4.60;1.52;;;8.70;34.50;;;;;;4991703;28;20157;-77
2023/04/02 02:08:40;;;;;;;3.13;1.35;;;8.70;38.00;;;;;;5008036;28;20483;-78
2023/04/02 02:11:14;;;;;;;3.95;1.55;;;8.70;40.50;;;;;;5003123;28;20042;-78
2023/04/02 02:13:52;;;;;;;1.75;1.05;;;8.70;40.60;;;;;;4990023;28;20050;-83
2023/04/02 02:16:18;;;;;;;4.18;1.13;;;8.70;37.60;;;;;;4988113;28;20053;-76
2023/04/02 02:18:52;;;;;;;2.15;1.30;;;8.70;39.70;;;;;;5010448;28;20029;-78
2023/04/02 02:21:57;;;;;;;5.10;1.55;;;8.70;42.80;;;;;;5007107;28;20038;-77
2023/04/02 02:24:27;;;;;;;4.72;1.00;;;8.70;43.30;;;;;;4986296;28;20042;-78
2023/04/02 02:27:21;;;;;;;3.83;1.27;;;8.70;44.40;;;;;;4998037;28;20404;-78
2023/04/02 02:30:15;;;;;;;3.50;1.70;;;8.70;46.90;;;;;;4990992;28;20078;-78
2023/04/02 02:33:07;;;;;;;1.60;0.95;;;8.70;46.30;;;;;;4971738;28;20046;-80
2023/04/02 02:35:41;;;;;;;3.33;1.48;;;8.70;42.90;;;;;;4974456;28;20050;-78
2023/04/02 02:38:29;;;;;;;4.43;1.45;;;8.70;40.80;;;;;;4992485;28;20042;-77
2023/04/02 02:41:15;;;;;;;3.50;1.70;;;8.70;41.00;;;;;;4978886;28;20082;-78
2023/04/02 02:43:48;;;;;;;3.30;1.48;;;8.70;40.30;;;;;;4986250;28;20037;-83
2023/04/02 02:46:18;;;;;;;2.85;1.55;;;8.70;39.70;;;;;;5000584;28;20471;-77
2023/04/02 02:48:46;;;;;;;3.97;1.60;;;8.70;41.10;;;;;;4988934;28;20480;-79
2023/04/02 02:51:24;;;;;;;3.22;1.55;;;8.70;42.80;;;;;;4970177;28;20046;-78
2023/04/02 02:53:54;;;;;;;3.97;1.50;;;8.70;43.20;;;;;;5009651;28;20046;-78
2023/04/02 02:56:22;;;;;;;6.57;2.17;;;8.70;44.40;;;;;;5007898;28;20045;-77
2023/04/02 02:58:51;;;;;;;3.20;1.50;;;8.60;43.30;;;;;;5003146;28;20484;-78
2023/04/02 03:01:22;;;;;;;3.08;1.63;;;8.70;43.00;;;;;;5004972;28;20403;-78
2023/04/02 03:03:53;;;;;;;4.13;1.42;;;8.60;44.60;;;;;;4996882;28;20392;-78
2023/04/02 03:06:20;;;;;;;3.95;1.70;;;8.70;49.90;;;;;;4966362;28;20039;-78
2023/04/02 03:09:05;;;;;;;3.60;1.45;;;8.70;47.90;;;;;;5000165;28;20049;-81
2023/04/02 03:11:56;;;;;;;3.05;1.50;;;8.70;44.50;;;;;;4990143;28;20038;-78
2023/04/02 03:14:45;;;;;;;3.33;1.30;;;8.70;46.80;;;;;;5002355;28;20057;-78
2023/04/02 03:17:28;;;;;;;5.07;3.10;;;8.70;43.20;;;;;;4988490;28;20045;-78
2023/04/02 03:20:09;;;;;;;3.80;1.85;;;8.70;42.80;;;;;;4983340;28;20046;-78
2023/04/02 03:22:42;;;;;;;3.78;1.77;;;8.70;45.70;;;;;;4991991;28;20049;-78
2023/04/02 03:25:31;;;;;;;4.28;1.75;;;8.70;47.70;;;;;;4984428;28;20042;-78
2023/04/02 03:28:10;;;;;;;4.13;1.50;;;8.70;52.00;;;;;;4974346;28;20062;-78
2023/04/02 03:30:45;;;;;;;2.88;1.80;;;8.70;50.90;;;;;;5003321;28;20038;-78
2023/04/02 03:33:18;;;;;;;3.28;1.40;;;8.70;52.20;;;;;;4994831;28;20399;-78
2023/04/02 03:35:48;;;;;;;4.80;1.58;;;8.70;53.60;;;;;;4998468;28;20053;-84
2023/04/02 03:38:35;;;;;;;4.00;1.58;;;8.70;50.90;;;;;;5003023;28;20057;-78
2023/04/02 03:41:10;;;;;;;5.82;2.55;;;8.70;50.90;;;;;;5004760;28;20049;-78
2023/04/02 03:43:53;;;;;;;3.67;1.83;;;8.60;53.40;;;;;;5000236;28;20391;-78
2023/04/02 03:46:59;;;;;;;4.93;1.77;;;8.70;53.60;;;;;;4998870;28;20037;-78
2023/04/02 03:49:48;;;;;;;5.78;1.92;;;8.70;54.20;;;;;;5005601;28;20038;-79
2023/04/02 03:52:23;;;;;;;4.00;2.15;;;8.70;56.50;;;;;;5009105;28;20057;-78
2023/04/02 03:54:49;;;;;;;3.78;1.75;;;8.70;55.50;;;;;;5013456;28;20053;-79
2023/04/02 03:57:26;;;;;;;3.33;1.83;;;8.70;52.80;;;;;;4994153;28;20050;-78
2023/04/02 04:00:31;;;;;;;2.15;1.92;;;8.60;55.00;;;;;;4981838;28;20043;-78
2023/04/02 04:03:13;;;;;;;3.40;1.83;;;8.70;53.70;;;;;;5015934;28;20038;-78
2023/04/02 04:05:52;;;;;;;5.85;1.52;;;8.70;47.40;;;;;;4996201;28;20179;-78
2023/04/02 04:08:25;;;;;;;5.80;2.10;;;8.70;48.70;;;;;;5010085;28;20034;-78
2023/04/02 04:11:02;;;;;;;7.13;1.80;;;8.70;51.30;;;;;;5006105;28;20057;-78
2023/04/02 04:13:37;;;;;;;3.85;1.85;;;8.70;50.00;;;;;;5000899;28;20053;-78
2023/04/02 04:16:13;;;;;;;2.45;1.60;;;8.70;50.40;;;;;;5005475;28;20403;-79
2023/04/02 04:18:50;;;;;;;2.70;1.80;;;8.70;53.80;;;;;;4999620;28;20034;-79
2023/04/02 04:21:38;;;;;;;6.30;2.15;;;8.70;49.90;;;;;;5008263;28;20037;-78
2023/04/02 04:24:21;;;;;;;4.90;1.92;;;8.70;47.50;;;;;;4999607;28;20046;-78
2023/04/02 04:27:08;;;;;;;4.20;2.13;;;8.70;48.00;;;;;;5019041;28;20045;-78
2023/04/02 04:30:04;;;;;;;4.88;2.67;;;8.60;52.50;;;;;;4995889;28;20055;-78
2023/04/02 04:32:48;;;;;;;4.63;2.83;;;8.70;55.10;;;;;;5003120;28;20045;-78
2023/04/02 04:35:31;;;;;;;4.72;2.50;;;8.60;58.30;;;;;;5029111;28;20034;-79
2023/04/02 04:38:13;;;;;;;2.72;1.58;;;8.60;59.80;;;;;;4992805;28;20042;-78
2023/04/02 04:40:51;;;;;;;3.00;1.85;;;8.60;58.20;;;;;;4985266;28;20416;-77
2023/04/02 04:43:33;;;;;;;2.72;1.65;;;8.60;60.40;;;;;;5004031;28;20054;-78
2023/04/02 04:46:14;;;;;;;5.28;2.78;;;8.60;60.40;;;;;;5006790;28;20045;-78
2023/04/02 04:49:02;;;;;;;2.70;1.40;;;8.60;60.90;;;;;;4994916;28;20038;-82
2023/04/02 04:51:41;;;;;;;4.40;1.70;;;8.60;56.80;;;;;;5014427;28;20045;-78
2023/04/02 04:54:12;;;;;;;3.83;1.77;;;8.60;56.90;;;;;;4996809;28;20046;-78
2023/04/02 04:56:45;;;;;;;3.13;1.67;;;8.60;53.30;;;;;;4995852;28;20053;-78
2023/04/02 04:59:19;;;;;;;3.67;1.70;;;8.60;57.80;;;;;;5000950;28;20049;-78
2023/04/02 05:01:58;;;;;;;5.20;2.20;;;8.60;61.80;;;;;;5013952;28;20053;-83
2023/04/02 05:04:27;;;;;;;4.30;1.90;;;8.60;65.70;;;;;;4996362;28;20042;-79
2023/04/02 05:07:01;;;;;;;6.72;2.05;;;8.60;68.20;;;;;;4989571;28;20061;-78
2023/04/02 05:09:37;;;;;;;3.35;2.13;;;8.60;66.60;;;;;;5029086;28;20038;-78
2023/04/02 05:12:31;;;;;;;3.03;2.03;;;8.60;65.30;;;;;;4997791;28;20053;-78
2023/04/02 05:15:20;;;;;;;5.30;3.30;;;8.60;65.60;;;;;;4998176;28;20042;-78
2023/04/02 05:17:52;;;;;;;3.72;1.77;;;8.60;61.80;;;;;;5003218;28;20046;-83
2023/04/02 05:20:27;;;;;;;3.65;1.70;;;8.60;58.10;;;;;;5002878;28;20044;-78
2023/04/02 05:23:13;;;;;;;2.88;2.13;;;8.60;60.00;;;;;;5003203;28;20045;-78
2023/04/02 05:26:05;;;;;;;2.40;1.55;;;8.60;58.80;;;;;;5018792;28;20046;-78
2023/04/02 05:28:33;;;;;;;3.30;2.25;;;8.60;57.10;;;;;;4991217;28;20051;-78
2023/04/02 05:31:11;;;;;;;3.20;2.10;;;8.60;57.60;;;;;;5005385;28;20045;-78
2023/04/02 05:33:39;;;;;;;3.70;1.92;;;8.60;57.80;;;;;;4996559;28;20050;-79
2023/04/02 05:36:11;;;;;;;2.92;1.67;;;8.60;57.50;;;;;;5004366;28;20055;-78
2023/04/02 05:38:47;;;;;;;2.72;1.92;;;8.60;57.60;;;;;;5027823;28;20049;-78
2023/04/02 05:41:21;;;;;;;3.35;1.95;;;8.60;58.30;;;;;;5006946;28;20403;-78
2023/04/02 05:43:53;;;;;;;4.43;2.00;;;8.60;57.30;;;;;;4993069;28;20054;-84
2023/04/02 05:46:22;;;;;;;;;;;8.60;53.20;;;;;;5009387;28;20042;-78
2023/04/02 05:48:55;;;;;;;2.92;1.70;;;8.60;45.50;;;;;;5002722;28;19916;-83
2023/04/02 05:51:34;;;;;;;3.38;1.65;;;8.70;38.90;;;;;;5001243;28;20045;-77
2023/04/02 05:54:04;;;;;;;4.38;1.95;;;8.60;34.80;;;;;;5021163;28;20057;-79
2023/04/02 05:56:40;;;;;;;3.55;1.63;;;8.60;34.40;;;;;;5021460;28;20054;-78
2023/04/02 05:59:28;;;;;;;3.58;2.10;;;8.70;32.80;;;;;;5011620;28;20399;-78
2023/04/02 06:02:16;;;;;;;5.90;1.83;;;8.70;33.60;;;;;;4999939;28;20053;-79
2023/04/02 06:04:51;;;;;;;2.33;1.45;;;8.70;34.80;;;;;;5021525;28;20045;-78
2023/04/02 06:07:23;;;;;;;5.70;3.20;;;8.70;32.30;;;;;;5007094;28;20394;-78
2023/04/02 06:10:15;;;;;;;4.57;2.25;;;8.70;35.50;;;;;;5009648;28;20034;-79
2023/04/02 06:13:02;;;;;;;3.50;1.80;;;8.80;31.80;;;;;;4996228;28;20050;-79
2023/04/02 06:15:31;;;;;;;2.83;1.92;;;8.80;30.70;;;;;;4994247;28;20046;-79
2023/04/02 06:18:21;;;;;;;3.58;2.13;;;8.80;28.70;;;;;;5001577;28;20041;-78
2023/04/02 06:20:49;;;;;;;5.18;3.10;;;8.80;27.30;;;;;;5007917;28;20037;-78
2023/04/02 06:23:21;;;;;;;4.88;2.20;;;8.80;26.80;;;;;;5009053;28;20042;-78
2023/04/02 06:25:56;;;;;;;3.03;1.88;;;8.80;23.80;;;;;;5015187;28;20038;-84
2023/04/02 06:28:44;;;;;;;5.68;2.50;;;8.80;24.80;;;;;;5024315;28;20519;-79
2023/04/02 06:31:23;;;;;;;6.05;2.55;;;8.80;27.70;;;;;;5004546;28;20058;-79
2023/04/02 06:33:51;;;;;;;4.13;2.65;;;8.80;29.00;;;;;;5003882;28;20105;-80
2023/04/02 06:36:20;;;;;;;3.50;2.35;;;8.80;29.40;;;;;;5012384;28;20053;-80
2023/04/02 06:38:48;;;;;;;6.88;2.30;;;8.80;31.30;;;;;;4995204;28;20038;-81
2023/04/02 06:41:20;;;;;;;3.65;2.28;;;8.80;29.50;;;;;;4998367;28;20045;-81
2023/04/02 06:44:17;;;;;;;4.93;3.00;;;8.80;31.00;;;;;;5006363;28;20403;-82
2023/04/02 06:47:11;;;;;;;3.60;2.30;;;8.80;33.10;;;;;;4990225;28;20046;-83
2023/04/02 06:49:52;;;;;;;4.40;2.35;;;8.90;32.40;;;;;;4996698;28;20042;-81
2023/04/02 06:52:38;;;;;;;5.10;2.75;;;8.90;31.00;;;;;;4994843;28;20033;-82
2023/04/02 06:55:39;;;;;;;4.40;3.08;;;8.90;28.50;;;;;;4995199;28;20042;-80
2023/04/02 06:58:05;;;;;;;4.70;2.50;;;8.90;27.60;;;;;;4998566;28;20054;-79
2023/04/02 07:00:43;;;;;;;4.50;2.50;;;9.00;29.20;;;;;;4987745;28;20064;-80
2023/04/02 07:03:32;;;;;;;4.07;2.78;;;9.00;27.00;;;;;;4999380;28;20049;-80
2023/04/02 07:06:06;;;;;;;3.47;2.17;;;9.10;26.30;;;;;;5003085;28;20042;-81
2023/04/02 07:08:34;;;;;;;4.75;2.97;;;9.10;26.00;;;;;;5012233;28;20042;-80
2023/04/02 07:11:00;;;;;;;4.95;2.35;;;9.20;26.80;;;;;;5005974;28;20053;-82
2023/04/02 07:13:27;;;;;;;3.97;2.08;;;9.20;19.20;;;;;;5004195;28;20047;-81
2023/04/02 07:15:54;;;;;;;4.93;2.65;;;9.30;14.70;;;;;;4995899;28;20045;-85
2023/04/02 07:18:32;;;;;;;3.33;2.47;;;9.40;8.70;;;;;;5007128;28;20041;-83
2023/04/02 07:21:01;;;;;;;3.35;2.13;;;9.40;12.80;;;;;;5007086;28;20488;-83
2023/04/02 07:23:28;;;;;;;6.40;2.50;;;9.40;1.00;;;;;;5010213;28;20053;-81
2023/04/02 07:25:55;;;;;;;4.10;2.05;;;9.40;1.00;;;;;;4995704;28;20057;-86
2023/04/02 07:28:22;;;;;;;3.97;2.40;;;9.40;1.00;;;;;;4987522;28;20073;-84
2023/04/02 07:30:49;;;;;;;5.65;2.28;;;9.40;2.30;;;;;;5000250;28;20061;-83
2023/04/02 07:33:17;;;;;;;3.45;2.33;;;9.60;4.50;;;;;;4984302;28;20106;-84
2023/04/02 07:35:43;;;;;;;8.95;2.58;;;9.60;1.70;;;;;;4996150;28;20070;-85
2023/04/02 07:38:10;;;;;;;3.38;1.73;;;9.80;1.00;;;;;;4994667;28;20034;-85
2023/04/02 07:40:36;;;;;;;5.55;2.03;;;9.90;1.00;;;;;;5000649;28;20049;-83
2023/04/02 07:43:04;;;;;;;3.38;2.10;;;10.00;1.00;;;;;;4998636;28;20026;-84
2023/04/02 07:45:30;;;;;;;4.30;2.25;;;10.00;1.00;;;;;;4994008;28;20037;-82
2023/04/02 07:47:56;;;;;;;3.30;2.15;;;10.10;1.00;;;;;;5006426;28;20452;-87
2023/04/02 07:50:23;;;;;;;4.28;2.55;;;10.30;1.00;;;;;;5000432;28;20061;-83
2023/04/02 07:52:49;;;;;;;3.50;2.35;;;10.30;1.00;;;;;;4993694;28;20468;-82
2023/04/02 07:55:15;;;;;;;3.65;2.42;;;10.40;1.00;;;;;;4984639;28;20576;-84
2023/04/02 07:57:51;;;;;;;5.38;2.22;;;10.40;1.00;;;;;;5002657;28;20037;-83
2023/04/02 08:00:18;;;;;;;2.85;2.05;;;10.50;1.00;;;;;;5001009;28;20034;-82
2023/04/02 08:02:44;;;;;;;2.80;2.13;;;10.40;1.00;;;;;;5007542;28;20494;-83
2023/04/02 08:05:10;;;;;;;2.53;1.73;;;10.40;1.00;;;;;;5001308;28;20039;-82
2023/04/02 08:07:38;;;;;;;4.30;2.47;;;10.60;1.00;;;;;;5010250;28;20034;-78
2023/04/02 08:10:06;;;;;;;3.95;2.47;;;10.70;1.00;;;;;;5006742;28;20041;-81
2023/04/02 08:12:32;;;;;;;3.28;2.10;;;10.70;1.00;;;;;;5000026;28;20373;-82
2023/04/02 08:14:58;;;;;;;3.55;2.17;;;10.80;1.00;;;;;;5003053;28;20038;-85
2023/04/02 08:17:30;;;;;;;3.30;2.05;;;11.00;1.00;;;;;;5009516;28;20475;-82
2023/04/02 08:20:00;;;;;;;4.18;2.17;;;11.10;1.00;;;;;;5002793;28;20046;-82
2023/04/02 08:22:28;;;;;;;3.90;2.47;;;11.00;1.00;;;;;;4989916;28;20053;-84
2023/04/02 08:24:55;;;;;;;4.00;2.40;;;10.80;1.00;;;;;;5005159;28;20042;-78
2023/04/02 08:27:22;;;;;;;4.45;2.20;;;10.70;1.00;;;;;;5001558;28;20039;-78
2023/04/02 08:29:49;;;;;;;5.95;2.70;;;10.80;1.00;;;;;;4997831;28;20387;-76
2023/04/02 08:32:15;;;;;;;4.13;2.50;;;10.90;1.00;;;;;;4997227;28;20037;-76
2023/04/02 08:34:45;;;;;;;4.65;2.35;;;11.10;1.00;;;;;;5005138;28;20038;-76
2023/04/02 08:37:12;;;;;;;3.85;2.53;;;11.10;1.00;;;;;;5003509;28;20045;-76
2023/04/02 08:39:39;;;;;;;2.45;1.98;;;11.20;1.00;;;;;;4997746;28;20034;-76
2023/04/02 08:42:26;;;;;;;6.78;2.60;;;11.50;1.00;;;;;;5006723;28;20042;-77
2023/04/02 08:45:07;;;;;;;3.42;2.17;;;11.50;1.00;;;;;;4998819;28;20459;-76
2023/04/02 08:47:36;;;;;;;4.82;2.30;;;11.50;1.00;;;;;;4991312;28;20042;-77
2023/04/02 08:50:29;;;;;;;2.80;2.08;;;11.50;1.00;;;;;;5002604;28;20049;-77
2023/04/02 08:52:55;;;;;;;4.75;2.50;;;11.20;1.00;;;;;;5011776;28;20034;-76
2023/04/02 08:55:35;;;;;;;2.90;2.33;;;11.10;1.00;;;;;;4997402;28;20033;-76
2023/04/02 08:58:22;;;;;;;4.85;2.55;;;11.10;1.00;;;;;;5001935;28;20372;-79
2023/04/02 09:00:56;;;;;;;4.78;2.45;;;11.00;1.00;;;;;;4994357;28;20033;-76
2023/04/02 09:03:41;;;;;;;4.78;2.45;;;11.10;1.00;;;;;;5001220;28;20056;-76
2023/04/02 09:06:12;;;;;;;4.22;2.35;;;11.00;1.00;;;;;;5000811;28;20038;-76
2023/04/02 09:08:38;;;;;;;3.65;2.67;;;10.90;1.00;;;;;;4996270;28;20050;-78
2023/04/02 09:11:20;;;;;;;3.38;2.17;;;10.90;1.00;;;;;;4984402;28;20034;-76
2023/04/02 09:13:51;;;;;;;5.10;2.83;;;11.00;1.00;;;;;;5004196;28;20034;-76
2023/04/02 09:16:21;;;;;;;;;;;11.00;1.00;;;;;;5003679;28;20049;-76
2023/04/02 09:18:51;;;;;;;3.13;2.10;;;11.10;1.00;;;;;;5006634;28;19910;-79
2023/04/02 09:21:27;;;;;;;2.88;2.13;;;11.20;1.00;;;;;;5012143;28;20049;-77
2023/04/02 09:23:53;;;;;;;4.20;2.30;;;11.30;1.00;;;;;;5006309;28;20037;-77
2023/04/02 09:26:27;;;;;;;3.25;2.10;;;11.40;1.00;;;;;;5003867;28;20050;-76
2023/04/02 09:29:38;;;;;;;3.20;2.38;;;11.30;1.00;;;;;;4988535;28;20051;-77
2023/04/02 09:32:24;;;;;;;4.70;2.90;;;11.30;1.00;;;;;;4971850;28;20050;-76
2023/04/02 09:35:14;;;;;;;3.30;2.65;;;11.40;1.00;;;;;;5002516;28;20054;-76
2023/04/02 09:37:42;;;;;;;5.17;2.77;;;11.50;1.00;;;;;;5002100;28;20034;-76
2023/04/02 09:40:26;;;;;;;3.25;2.75;;;11.70;1.00;;;;;;5000051;28;20627;-77
2023/04/02 09:43:11;;;;;;;4.40;2.22;;;11.80;1.00;;;;;;5000317;28;20502;-77
2023/04/02 09:45:39;;;;;;;2.85;1.98;;;12.00;1.00;;;;;;5004377;28;20043;-80
2023/04/02 09:48:38;;;;;;;3.38;2.78;;;12.10;1.00;;;;;;5004294;28;20460;-77
2023/04/02 09:51:26;;;;;;;3.65;1.75;;;12.10;1.00;;;;;;4995961;28;20038;-77
2023/04/02 09:54:02;;;;;;;3.13;1.77;;;12.00;1.00;;;;;;5001730;28;20479;-77
2023/04/02 09:56:33;;;;;;;2.42;1.95;;;12.00;1.00;;;;;;5002066;28;20053;-76
2023/04/02 09:59:12;;;;;;;2.40;1.60;;;11.80;1.00;;;;;;5001603;28;20045;-78
2023/04/02 10:01:39;;;;;;;3.83;2.05;;;11.40;1.00;;;;;;5001163;28;20026;-78
2023/04/02 10:04:43;;;;;;;3.95;2.58;;;10.90;1.00;;;;;;5007134;28;20038;-77
2023/04/02 10:07:29;;;;;;;4.15;2.50;;;10.70;1.00;;;;;;4979755;28;20045;-77
2023/04/02 10:10:17;;;;;;;3.15;1.88;;;10.40;1.00;;;;;;4997036;28;20041;-80
2023/04/02 10:12:47;;;;;;;2.95;1.50;;;9.80;1.00;;;;;;5000478;28;20034;-78
2023/04/02 10:15:20;;;;;;;3.20;2.13;;;9.50;54.20;;;;;;5002569;28;20035;-78
2023/04/02 10:17:56;;;;;;;1.60;1.08;;;9.20;92.90;;;;;;5006995;28;20041;-78
2023/04/02 10:20:26;;;;;;;1.70;1.17;;;8.90;99.90;;;;;;5001761;28;20049;-76
2023/04/02 10:22:52;;;;;;;2.15;0.90;;;8.70;99.90;;;;;;4995101;28;20027;-77
2023/04/02 10:25:21;;;;;;;2.45;0.80;;;8.70;99.90;;;;;;5007125;28;20045;-77
2023/04/02 10:28:03;;;;;;;1.23;0.40;;;8.60;99.90;;;;;;5001411;28;20404;-75
2023/04/02 10:30:56;;;;;;;1.70;0.70;;;8.50;99.90;;;;;;4990640;28;20106;-75
2023/04/02 10:33:46;;;;;;;0.65;0.40;;;8.50;99.90;;;;;;5003547;28;20042;-75
2023/04/02 10:36:35;;;;;;;1.30;0.75;;;8.40;99.90;;;;;;5001927;28;20042;-76
2023/04/02 10:39:14;;;;;;;1.15;0.90;;;8.50;99.90;;;;;;4995229;28;20126;-86
2023/04/02 10:41:46;;;;;;;1.08;0.50;;;8.50;99.90;;;;;;5000061;28;20034;-77
2023/04/02 10:44:23;;;;;;;0.70;0.47;;;8.40;99.90;;;;;;4997401;28;20387;-76
2023/04/02 10:47:06;;;;;;;0.40;0.30;;;8.40;99.90;;;;;;5004146;28;20403;-77
2023/04/02 10:50:00;;;;;;;0.45;0.20;;;8.40;99.90;;;;;;5004047;28;20040;-80
2023/04/02 10:52:30;;;;;;;1.40;0.70;;;8.50;99.90;;;;;;4999754;28;20041;-78
2023/04/02 10:55:05;;;;;;;1.17;0.67;;;8.50;99.90;;;;;;5002176;28;20455;-76
2023/04/02 10:57:37;;;;;;;0.73;0.30;;;8.60;99.90;;;;;;4999747;28;20281;-76
2023/04/02 11:00:15;;;;;;;0.88;0.47;;;8.60;99.90;;;;;;5000169;28;20030;-78
2023/04/02 11:03:00;;;;;;;0.57;0.38;;;8.60;99.90;;;;;;5006809;28;20037;-76
2023/04/02 11:05:42;;;;;;;2.05;0.57;;;8.80;99.90;;;;;;4998007;28;20065;-77
2023/04/02 11:08:30;;;;;;;0.68;0.32;;;8.80;99.90;;;;;;4998137;28;20031;-76
2023/04/02 11:11:02;;;;;;;1.30;0.28;;;9.10;99.90;;;;;;5000073;28;20030;-77
2023/04/02 11:13:55;;;;;;;0.50;0.40;;;9.30;99.90;;;;;;4991148;28;20042;-81
2023/04/02 11:16:22;;;;;;;0.20;0.20;;;9.40;99.90;;;;;;5002780;28;20046;-81
2023/04/02 11:19:09;;;;;;;0.50;0.30;;;9.40;99.90;;;;;;5007284;28;20042;-78
2023/04/02 11:21:37;;;;;;;0.75;0.25;;;9.60;99.90;;;;;;5006891;28;20034;-78
2023/04/02 11:24:04;;;;;;;0.60;0.25;;;9.40;91.90;;;;;;5002287;28;20045;-82
2023/04/02 11:26:32;;;;;;;0.22;0.20;;;9.40;84.70;;;;;;4976966;28;20409;-81
2023/04/02 11:29:15;;;;;;;0.50;0.22;;;9.30;65.40;;;;;;4997750;28;20054;-83
2023/04/02 11:31:43;;;;;;;0.40;0.30;;;9.30;99.90;;;;;;5004506;28;20045;-79
2023/04/02 11:34:55;;;;;;;0.68;0.30;;;9.40;99.90;;;;;;5002545;28;20038;-80
2023/04/02 11:37:42;;;;;;;0.32;0.30;;;9.50;95.50;;;;;;5000429;28;20065;-80
2023/04/02 11:40:12;;;;;;;0.28;0.28;;;9.40;47.80;;;;;;4994910;28;20041;-81
2023/04/02 11:42:46;;;;;;;0.90;0.40;;;9.40;70.30;;;;;;4987541;28;20399;-78
2023/04/02 11:45:22;;;;;;;0.85;0.40;;;9.40;85.50;;;;;;4999752;28;20049;-77
2023/04/02 11:48:00;;;;;;;0.77;0.32;;;9.20;90.90;;;;;;4979229;28;20368;-80
2023/04/02 11:50:32;;;;;;;0.47;0.38;;;9.30;95.60;;;;;;4993963;28;20030;-80
2023/04/02 11:53:12;;;;;;;0.70;0.50;;;9.20;58.10;;;;;;5004539;28;20503;-78
2023/04/02 11:55:40;;;;;;;0.57;0.50;;;9.20;95.30;;;;;;5006523;28;20144;-80
2023/04/02 11:58:41;;;;;;;0.68;0.30;;;9.10;94.50;;;;;;5000177;28;20034;-79
2023/04/02 12:01:23;;;;;;;0.88;0.30;;;9.20;99.90;;;;;;5002467;28;20392;-77
2023/04/02 12:04:26;;;;;;;1.30;0.40;;;9.10;99.40;;;;;;5004425;28;20037;-78
2023/04/02 12:06:58;;;;;;;4.60;0.57;;;9.20;74.80;;;;;;4995356;28;20034;-78
2023/04/02 12:09:49;;;;;;;0.47;0.32;;;9.20;64.50;;;;;;4997496;28;20034;-78
2023/04/02 12:12:27;;;;;;;0.60;0.30;;;9.20;41.40;;;;;;4991146;28;20050;-87
2023/04/02 12:14:55;;;;;;;1.35;0.50;;;9.30;28.70;;;;;;4973440;28;20053;-78
2023/04/02 12:17:29;;;;;;;0.73;0.47;;;9.40;58.00;;;;;;4998452;28;20359;-78
2023/04/02 12:20:00;;;;;;;0.68;0.43;;;9.60;58.20;;;;;;4991733;28;20392;-79
2023/04/02 12:22:31;;;;;;;0.43;0.40;;;9.50;17.40;;;;;;5000529;28;20201;-79
2023/04/02 12:25:01;;;;;;;0.60;0.38;;;9.40;17.00;;;;;;5001500;28;20045;-80
2023/04/02 12:27:28;;;;;;;1.25;0.40;;;9.50;15.70;;;;;;4997989;28;20096;-79
2023/04/02 12:30:09;;;;;;;0.47;0.43;;;9.50;5.20;;;;;;4997242;28;20030;-79
2023/04/02 12:32:36;;;;;;;0.90;0.35;;;9.50;1.20;;;;;;4997809;28;20041;-80
2023/04/02 12:35:05;;;;;;;0.40;0.40;;;9.50;1.00;;;;;;5001685;28;20049;-79
2023/04/02 12:37:31;;;;;;;0.50;0.38;;;9.50;1.00;;;;;;4997453;28;20448;-80
2023/04/02 12:40:00;;;;;;;1.10;0.50;;;9.40;1.00;;;;;;4997659;28;20022;-78
2023/04/02 12:42:35;;;;;;;0.70;0.35;;;9.60;1.00;;;;;;4999136;28;20043;-79
2023/04/02 12:45:03;;;;;;;0.35;0.20;;;9.60;1.00;;;;;;4996036;28;20474;-79
2023/04/02 12:47:30;;;;;;;0.45;0.38;;;9.80;1.00;;;;;;4998575;28;20038;-79
2023/04/02 12:49:59;;;;;;;0.90;0.30;;;9.90;1.00;;;;;;4997566;28;20345;-78
2023/04/02 12:52:27;;;;;;;0.57;0.30;;;9.80;1.00;;;;;;4982929;28;20038;-79
2023/04/02 12:55:02;;;;;;;0.50;0.30;;;9.70;1.00;;;;;;4981911;28;20034;-79
2023/04/02 12:57:28;;;;;;;0.22;0.20;;;9.70;1.00;;;;;;4976012;28;20438;-78
2023/04/02 13:00:00;;;;;;;1.00;0.28;;;9.70;1.00;;;;;;5002402;28;20034;-79
2023/04/02 13:02:29;;;;;;;1.42;0.40;;;9.60;1.00;;;;;;4991428;28;20042;-85
2023/04/02 13:04:59;;;;;;;0.43;0.20;;;9.60;1.00;;;;;;4983492;28;20047;-80
2023/04/02 13:07:30;;;;;;;0.70;0.40;;;9.60;1.00;;;;;;4996546;28;20260;-79
2023/04/02 13:09:58;;;;;;;0.50;0.30;;;9.70;1.00;;;;;;4994948;28;20061;-78
2023/04/02 13:12:34;;;;;;;0.95;0.30;;;9.70;1.00;;;;;;5004236;28;20038;-77
2023/04/02 13:15:06;;;;;;;1.55;0.20;;;9.50;1.00;;;;;;4998081;28;20048;-79
2023/04/02 13:17:43;;;;;;;0.10;0.10;;;9.50;1.00;;;;;;4981632;28;20046;-77
2023/04/02 13:20:30;;;;;;;0.50;0.20;;;9.50;1.00;;;;;;5001304;28;20041;-79
2023/04/02 13:22:57;;;;;;;0.30;0.20;;;9.50;1.00;;;;;;5004031;28;20038;-78
2023/04/02 13:25:29;;;;;;;4.45;0.65;;;9.50;1.00;;;;;;4991781;28;20029;-80
2023/04/02 13:27:56;;;;;;;0.60;0.60;;;9.40;1.00;;;;;;4984370;28;20057;-79
2023/04/02 13:30:25;;;;;;;2.40;0.77;;;9.50;1.00;;;;;;5014369;28;20411;-80
2023/04/02 13:32:51;;;;;;;0.30;0.20;;;9.50;1.00;;;;;;5009473;28;20034;-79
2023/04/02 13:35:18;;;;;;;1.38;0.30;;;9.40;1.00;;;;;;5004302;28;20042;-80
2023/04/02 13:37:44;;;;;;;1.60;0.60;;;9.50;1.00;;;;;;5007446;28;20034;-81
2023/04/02 13:40:16;;;;;;;1.75;0.40;;;9.50;1.00;;;;;;5002238;28;20034;-80
2023/04/02 13:42:43;;;;;;;1.55;0.40;;;9.40;1.00;;;;;;5007626;28;20045;-80
2023/04/02 13:45:41;;;;;;;1.85;0.60;;;9.50;1.00;;;;;;5001517;28;20038;-80
2023/04/02 13:48:13;;;;;;;1.55;0.55;;;9.50;1.00;;;;;;4971428;28;20053;-82